createdAt,value
2023-09-12T00:04:25.083Z,47.66
2023-09-12T00:09:28.945Z,47.66
2023-09-12T00:14:31.732Z,47.77
2023-09-12T00:19:36.247Z,47.89
2023-09-12T00:24:40.071Z,48.06
2023-09-12T00:29:43.012Z,48.07
2023-09-12T00:34:47.508Z,47.82
2023-09-12T00:39:50.303Z,47.88
2023-09-12T00:44:53.558Z,47.83
2023-09-12T00:49:57.852Z,47.83
2023-09-12T00:55:00.679Z,47.87
2023-09-12T01:00:05.466Z,47.76
2023-09-12T01:05:09.905Z,48.14
2023-09-12T01:10:12.673Z,47.95
2023-09-12T01:15:15.615Z,48.00
2023-09-12T01:20:23.788Z,47.91
2023-09-12T01:25:44.641Z,48.12
2023-09-12T01:30:48.858Z,48.05
2023-09-12T01:35:51.671Z,47.96
2023-09-12T01:40:54.913Z,48.04
2023-09-12T01:46:00.203Z,48.16
2023-09-12T01:51:03.685Z,47.94
2023-09-12T01:56:06.688Z,48.21
2023-09-12T02:01:10.993Z,47.97
2023-09-12T02:06:13.825Z,48.16
2023-09-12T02:11:17.042Z,48.08
2023-09-12T02:16:21.262Z,48.13
2023-09-12T02:21:24.155Z,48.11
2023-09-12T02:26:26.977Z,48.05
2023-09-12T02:31:31.288Z,48.09
2023-09-12T02:36:34.169Z,47.90
2023-09-12T02:41:37.002Z,47.82
2023-09-12T02:46:41.295Z,48.08
2023-09-12T02:51:44.209Z,48.00
2023-09-12T02:56:47.100Z,48.18
2023-09-12T03:01:51.352Z,48.20
2023-09-12T03:06:54.122Z,48.02
2023-09-12T03:11:57.029Z,48.19
2023-09-12T03:17:01.878Z,47.95
2023-09-12T03:22:05.557Z,48.21
2023-09-12T03:27:09.156Z,48.06
2023-09-12T03:32:13.575Z,48.14
2023-09-12T03:37:16.386Z,47.82
2023-09-12T03:42:19.398Z,48.11
2023-09-12T03:47:23.699Z,47.94
2023-09-12T03:52:26.604Z,48.02
2023-09-12T03:57:29.777Z,48.01
2023-09-12T04:02:34.413Z,48.00
2023-09-12T04:07:37.280Z,47.88
2023-09-12T04:12:40.313Z,47.78
2023-09-12T04:17:44.558Z,47.82
2023-09-12T04:22:47.345Z,47.88
2023-09-12T04:27:50.347Z,47.93
2023-09-12T04:32:54.689Z,47.86
2023-09-12T04:37:57.643Z,47.90
2023-09-12T04:43:00.666Z,47.99
2023-09-12T04:48:05.858Z,47.87
2023-09-12T04:53:08.796Z,47.85
2023-09-12T04:58:11.778Z,47.89
2023-09-12T05:03:16.815Z,47.82
2023-09-12T05:08:19.944Z,47.86
2023-09-12T05:13:22.797Z,47.89
2023-09-12T05:18:27.465Z,47.76
2023-09-12T05:23:30.453Z,47.75
2023-09-12T05:28:33.815Z,47.75
2023-09-12T05:33:38.380Z,47.90
2023-09-12T05:38:41.762Z,47.69
2023-09-12T05:43:45.636Z,47.98
2023-09-12T05:48:50.097Z,47.70
2023-09-12T05:53:53.581Z,48.59
2023-09-12T05:58:56.627Z,49.27
2023-09-12T06:04:01.382Z,49.85
2023-09-12T06:09:04.884Z,50.50
2023-09-12T06:14:08.862Z,50.58
2023-09-12T06:19:13.026Z,50.60
2023-09-12T06:24:16.769Z,50.05
2023-09-12T06:29:19.641Z,49.82
2023-09-12T06:34:23.828Z,49.64
2023-09-12T06:39:26.705Z,49.59
2023-09-12T06:44:29.604Z,49.53
2023-09-12T06:49:35.783Z,49.52
2023-09-12T06:54:38.818Z,49.45
2023-09-12T06:59:41.603Z,49.42
2023-09-12T07:04:45.805Z,49.33
2023-09-12T07:09:48.645Z,49.12
2023-09-12T07:14:53.020Z,49.09
2023-09-12T07:19:57.253Z,48.96
2023-09-12T07:25:02.011Z,49.26
2023-09-12T07:30:05.949Z,49.13
2023-09-12T07:35:10.392Z,49.05
2023-09-12T07:40:13.709Z,48.99
2023-09-12T07:45:16.541Z,48.90
2023-09-12T07:50:20.846Z,48.85
2023-09-12T07:55:23.768Z,49.01
2023-09-12T08:00:26.702Z,48.88
2023-09-12T08:05:30.891Z,48.96
2023-09-12T08:10:33.727Z,48.90
2023-09-12T08:15:36.614Z,48.78
2023-09-12T08:20:41.446Z,48.61
2023-09-12T08:25:44.241Z,48.79
2023-09-12T08:30:47.491Z,48.48
2023-09-12T08:35:52.679Z,48.73
2023-09-12T08:40:55.496Z,48.61
2023-09-12T08:45:58.413Z,48.52
2023-09-12T08:51:02.813Z,48.53
2023-09-12T08:56:06.211Z,48.44
2023-09-12T09:01:11.634Z,48.31
2023-09-12T09:06:15.905Z,48.46
2023-09-12T09:11:18.890Z,48.24
2023-09-12T09:16:22.402Z,48.33
2023-09-12T09:21:27.762Z,48.23
2023-09-12T09:26:43.715Z,48.48
2023-09-12T09:31:47.706Z,48.52
2023-09-12T09:36:53.178Z,48.60
2023-09-12T09:41:56.958Z,48.52
2023-09-12T09:47:03.468Z,48.40
2023-09-12T09:52:08.933Z,48.52
2023-09-12T09:57:11.710Z,48.29
2023-09-12T10:02:17.635Z,47.94
2023-09-12T10:07:21.957Z,47.87
2023-09-12T10:12:25.190Z,47.89
2023-09-12T10:17:31.600Z,47.91
2023-09-12T10:22:39.433Z,48.17
2023-09-12T10:27:42.429Z,48.37
2023-09-12T10:32:47.088Z,47.90
2023-09-12T10:37:51.311Z,48.02
2023-09-12T10:42:54.271Z,47.93
2023-09-12T10:47:57.672Z,48.14
2023-09-12T10:53:12.552Z,48.06
2023-09-12T10:58:15.555Z,48.04
2023-09-12T11:03:37.868Z,48.15
2023-09-12T11:08:42.324Z,47.94
2023-09-12T11:13:46.828Z,47.86
2023-09-12T11:19:14.858Z,47.74
2023-09-12T11:24:19.545Z,47.61
2023-09-12T11:29:22.508Z,47.83
2023-09-12T11:34:27.185Z,47.63
2023-09-12T11:39:32.716Z,47.35
2023-09-12T11:44:35.561Z,46.98
2023-09-12T11:49:39.043Z,46.92
2023-09-12T11:54:43.327Z,46.52
2023-09-12T11:59:48.101Z,46.26
2023-09-12T12:04:51.477Z,46.42
2023-09-12T12:09:55.743Z,46.69
2023-09-12T12:14:58.665Z,46.82
2023-09-12T12:20:01.693Z,46.58
2023-09-12T12:25:09.437Z,46.65
2023-09-12T12:30:13.461Z,46.58
2023-09-12T12:35:51.290Z,45.81
2023-09-12T12:40:47.611Z,45.85
2023-09-12T12:45:55.505Z,45.80
2023-09-12T12:50:58.756Z,45.86
2023-09-12T12:56:03.478Z,45.96
2023-09-12T13:01:06.727Z,46.28
2023-09-12T13:06:14.312Z,47.10
2023-09-12T13:11:19.013Z,47.42
2023-09-12T13:16:21.933Z,47.30
2023-09-12T13:21:24.847Z,47.58
2023-09-12T13:26:32.089Z,47.06
2023-09-12T13:31:37.629Z,45.41
2023-09-12T13:36:43.550Z,44.22
2023-09-12T13:41:48.714Z,42.92
2023-09-12T13:46:51.738Z,42.32
2023-09-12T13:51:57.109Z,42.28
2023-09-12T13:57:01.340Z,41.90
2023-09-12T14:02:05.117Z,42.30
2023-09-12T14:07:08.593Z,40.07
2023-09-12T14:12:26.189Z,40.29
2023-09-12T14:17:31.791Z,40.24
2023-09-12T14:22:35.498Z,39.20
2023-09-12T14:27:40.026Z,38.83
2023-09-12T14:32:43.109Z,38.41
2023-09-12T14:37:46.184Z,39.17
2023-09-12T14:42:50.533Z,38.95
2023-09-12T14:47:54.069Z,38.74
2023-09-12T14:52:56.990Z,39.23
2023-09-12T14:58:01.277Z,40.22
2023-09-12T15:03:05.135Z,40.84
2023-09-12T15:08:08.668Z,41.70
2023-09-12T15:13:14.698Z,42.13
2023-09-12T15:18:17.594Z,43.13
2023-09-12T15:23:23.942Z,43.40
2023-09-12T15:28:28.118Z,44.21
2023-09-12T15:33:31.019Z,44.57
2023-09-12T15:38:33.938Z,44.83
2023-09-12T15:43:38.200Z,45.06
2023-09-12T15:48:41.221Z,45.22
2023-09-12T15:53:44.330Z,45.70
2023-09-12T15:58:49.514Z,46.43
2023-09-12T16:03:52.567Z,47.10
2023-09-12T16:08:55.517Z,46.78
2023-09-12T16:13:59.668Z,46.58
2023-09-12T16:19:03.375Z,47.23
2023-09-12T16:24:06.623Z,47.15
2023-09-12T16:29:11.002Z,47.60
2023-09-12T16:34:14.059Z,47.64
2023-09-12T16:39:16.858Z,47.74
2023-09-12T16:44:21.707Z,47.89
2023-09-12T16:49:24.635Z,48.64
2023-09-12T16:54:27.501Z,48.60
2023-09-12T16:59:31.661Z,48.81
2023-09-12T17:04:34.705Z,48.86
2023-09-12T17:09:37.636Z,49.02
2023-09-12T17:14:41.995Z,49.28
2023-09-12T17:19:45.477Z,49.42
2023-09-12T17:24:49.500Z,49.70
2023-09-12T17:29:53.776Z,49.60
2023-09-12T17:35:00.466Z,49.71
2023-09-12T17:40:04.339Z,49.98
2023-09-12T17:45:09.917Z,49.86
2023-09-12T17:50:12.861Z,49.73
2023-09-12T17:55:17.908Z,50.15
2023-09-12T18:00:27.929Z,50.05
2023-09-12T18:05:31.906Z,51.01
2023-09-12T18:10:34.743Z,50.58
2023-09-12T18:15:44.040Z,51.06
2023-09-12T18:20:46.950Z,51.36
2023-09-12T18:25:54.665Z,51.46
2023-09-12T18:30:58.941Z,51.39
2023-09-12T18:36:01.976Z,51.07
2023-09-12T18:41:06.058Z,50.91
2023-09-12T18:46:11.657Z,51.19
2023-09-12T18:51:14.520Z,51.30
2023-09-12T18:56:17.434Z,51.25
2023-09-12T19:01:21.996Z,51.49
2023-09-12T19:06:24.869Z,52.40
2023-09-12T19:11:28.623Z,52.73
2023-09-12T19:16:32.834Z,53.33
2023-09-12T19:21:36.595Z,52.89
2023-09-12T19:26:39.548Z,53.46
2023-09-12T19:31:46.243Z,53.68
2023-09-12T19:36:49.252Z,53.33
2023-09-12T19:41:52.089Z,53.93
2023-09-12T19:46:56.530Z,54.35
2023-09-12T19:51:59.542Z,54.18
2023-09-12T19:57:02.605Z,54.74
2023-09-12T20:02:08.087Z,53.72
2023-09-12T20:07:11.019Z,52.39
2023-09-12T20:12:13.876Z,52.38
2023-09-12T20:17:18.017Z,51.61
2023-09-12T20:22:20.841Z,50.99
2023-09-12T20:27:23.713Z,50.62
2023-09-12T20:32:28.026Z,50.26
2023-09-12T20:37:30.858Z,50.39
2023-09-12T20:42:33.916Z,51.20
2023-09-12T20:47:39.817Z,50.35
2023-09-12T20:52:43.188Z,50.80
2023-09-12T20:57:46.015Z,50.13
2023-09-12T21:02:50.439Z,50.24
2023-09-12T21:07:53.412Z,50.23
2023-09-12T21:12:56.293Z,50.92
2023-09-12T21:18:00.943Z,50.48
2023-09-12T21:23:04.653Z,50.33
2023-09-12T21:28:07.696Z,51.00
2023-09-12T21:33:12.048Z,50.61
2023-09-12T21:38:14.897Z,50.99
2023-09-12T21:43:17.713Z,50.95
2023-09-12T21:48:21.964Z,51.17
2023-09-12T21:53:24.796Z,51.02
2023-09-12T21:58:27.647Z,50.64
2023-09-12T22:03:32.064Z,51.12
2023-09-12T22:08:34.846Z,51.47
2023-09-12T22:13:37.627Z,51.49
2023-09-12T22:18:41.897Z,51.54
2023-09-12T22:23:45.099Z,51.12
2023-09-12T22:28:48.162Z,51.27
2023-09-12T22:33:52.719Z,51.43
2023-09-12T22:38:55.527Z,51.11
2023-09-12T22:43:59.077Z,51.14
2023-09-12T22:49:03.220Z,50.92
2023-09-12T22:54:06.251Z,51.38
2023-09-12T22:59:09.258Z,51.90
2023-09-12T23:04:13.625Z,51.99
2023-09-12T23:09:16.429Z,51.59
2023-09-12T23:14:19.240Z,51.40
2023-09-12T23:19:23.950Z,51.66
2023-09-12T23:24:27.155Z,51.42
2023-09-12T23:29:29.904Z,51.86
2023-09-12T23:34:34.131Z,52.01
2023-09-12T23:39:37.050Z,52.09
2023-09-12T23:44:41.045Z,52.20
2023-09-12T23:49:48.143Z,52.18
2023-09-12T23:54:50.937Z,52.19
2023-09-12T23:59:54.839Z,53.68
